Share

Fordyce, NE

Gurney Municipal (KYKN) Elev 1306 ft | 42.92 °N, 97.39 °W | Change Station

Current weather conditions updated 8 minutes ago

Overcast
Overcast
32 °F
Feels Like 21 °F
N
17
Wind Variable Wind from NNW
Sunrise 6:46 AM
Sunset 8:12 PM
Moon Waning Gibbous

Tomorrow is forecast to be Much Cooler than today.

Pressure 30.14 in
Visibility 10.0 miles
Clouds Overcast 1800 ft
Windchill 21 °F
Dew Point 27 °F
Humidity 80%
Rainfall 0.08 in
Snow Depth Not available.
UV 0 out of 16
Pollen 10.10 out of 12
Air Quality Not available.
Flu Activity Sporadic
METAR KYKN 170255Z AUTO 33015KT 10SM OVC018 00/M03 A3014 RMK AO1 52054

More Conditions Fewer Conditions

Pressure 30.14 in
Visibility 10.0 miles
Clouds Overcast 1800 ft
Windchill 21 °F
Dew Point 27 °F
Humidity 80%
Rainfall 0.08 in
Snow Depth Not available.
UV 0 out of 16
Pollen 10.10 out of 12
Air Quality Not available.
Flu Activity Sporadic
METAR KYKN 170255Z AUTO 33015KT 10SM OVC018 00/M03 A3014 RMK AO1 52054

More Conditions Fewer Conditions

10-Day Forecast

Almanac

Astronomy

Apr. 16, 2014 Rise Set
Actual Time 6:46 AM CDT 8:12 PM CDT
Civil Twilight 6:16 AM CDT 8:42 PM CDT
Nautical Twilight 5:41 AM CDT 9:18 PM CDT
Astronomical Twilight 5:03 AM CDT 9:55 PM CDT
Moon 10:00 PM CDT (4/16) 7:33 AM CDT (4/16)
Length of Visible Light 14h 25m
Length of Day
13h 26m
Tomorrow will be 2m 46s longer.
Waning Gibbous, 96% of the Moon is Illuminated
Today
Waning Gibbous
Apr 22
Last Quarter
Apr 29
New
May 6
First Quarter
May 14
Full

Today's Extremes

State Highs State Lows

Community

  • symphony in blue....
    symphony in blue....
  • Dawn Surprise
    Dawn Surprise
  • Yucca delight
    Yucca delight
  • Sunset inside of the Ocean
    Sunset inside of the Ocean
  • Lunar eclipse 15 April 2014
    Lunar eclipse 15 April 2014

WunderPhotos

Upload Photos

1,701,829 photos uploaded!

WunderBlogs® & News

Nearby

Snow Depth

Station Depth Elevation
No new snow has been reported.

Coastal Water Temperatures

Place Temperature
No Stations Reporting

Earthquake Activity

City Distance Mag. Time & Date
No recent earthquake activity has been reported nearby.
Minimum magnitude displayed is 2.5.

Nearby Weather Stations

Station Location Temp. Windchill Dew Point Humidity Wind Precip. Elev Updated Type
Volin, Volin, SD 32.9 °F 23 °F 29 °F 87% NW  at  14.0 mph 0.00 in / hr 1230 ft 10:03 PM CDT Rapid Fire

Show More Stations Show Fewer Stations

What do you think?

We're not finished. Please let us know what you like, what you don't like, and what you are still missing.